Key West, FL

8:57 AM EST on February 06, 2016 (GMT -0500)
Big Coppitt Key Gulfside | | Change Station
CLOSE
Current Station
Personal Weather Station
Location: Key West, FL
Elevation: 31 ft
Nearby Weather Stations

Elev 31 ft 24.60 °N, 81.67 °W | Updated 10 minutes ago

Mostly Cloudy
Mostly Cloudy
66.0 °F
Feels Like 66.0 °F
N
8.9
Wind Variable Wind from NNE

Today
High -- | Low -- °F
--% Chance of Precip.
Yesterday
High -- | Low -- °F
Precip. -- in
Pressure 30.11 in
Visibility 10.0 miles
Clouds Scattered Clouds 4100 ft
Mostly Cloudy 6500 ft
Dew Point 60 °F
Humidity 81%
Rainfall 0.00 in
Snow Depth Not available.
7:06 AM 6:15 PM
Waning Crescent, 5% visible
METAR KNQX 061353Z 04010KT 10SM SCT041 BKN065 19/17 A3011 RMK AO2 SLP195 T01940167 $
Pressure 30.11 in
Visibility 10.0 miles
Clouds Scattered Clouds 4100 ft
Mostly Cloudy 6500 ft
Dew Point 60 °F
Humidity 81%
Rainfall 0.00 in
Snow Depth Not available.
7:06 AM 6:15 PM
Waning Crescent, 5% visible
METAR KNQX 061353Z 04010KT 10SM SCT041 BKN065 19/17 A3011 RMK AO2 SLP195 T01940167 $

10-Day Weather Forecast

Almanac

Astronomy

Feb. 06, 2016 Rise Set
Actual Time
Civil Twilight
Nautical Twilight
Astronomical Twilight
Moon
Length of Visible Light
Length of Day
Tomorrow will be .
, % of the Moon is Illuminated

Today's Extremes

State Highs State Lows

Community

WunderPhotos

Upload Photos

1,890,971 photos uploaded!

WunderBlog® & News

Nearby

Air Quality

  Air Quality AQ Index Pollutant
Not available.

Snow Depth

Station Depth Elevation

Earthquake Activity

City Distance Mag. Time & Date
Minimum magnitude displayed is 2.5.

Coastal Water Temperatures

Place Temperature

Stations

Nearby Weather Stations

Station Location Temp. Windchill Dew Point Humidity Wind Precip. Elev Updated Type
                   

Watches & Warnings

There are currently no watches in effect.